sensor_id;sensor_type;location;lat;lon;timestamp;pressure;altitude;pressure_sealevel;temperature;humidity
59154;BME280;44935;48.944;9.418;2022-08-21T00:00:58;98789.88;;;17.50;51.85
59154;BME280;44935;48.944;9.418;2022-08-21T00:03:26;98787.43;;;17.70;51.71
59154;BME280;44935;48.944;9.418;2022-08-21T00:05:53;98783.89;;;17.59;51.31
59154;BME280;44935;48.944;9.418;2022-08-21T00:08:21;98786.60;;;17.81;51.19
59154;BME280;44935;48.944;9.418;2022-08-21T00:10:49;98783.47;;;18.28;49.92
59154;BME280;44935;48.944;9.418;2022-08-21T00:13:18;98780.13;;;18.28;49.87
59154;BME280;44935;48.944;9.418;2022-08-21T00:15:46;98783.14;;;17.88;50.53
59154;BME280;44935;48.944;9.418;2022-08-21T00:18:15;98783.88;;;17.41;51.92
59154;BME280;44935;48.944;9.418;2022-08-21T00:20:44;98781.41;;;17.31;51.76
59154;BME280;44935;48.944;9.418;2022-08-21T00:23:11;98778.02;;;17.56;51.48
59154;BME280;44935;48.944;9.418;2022-08-21T00:25:39;98774.88;;;17.91;50.46
59154;BME280;44935;48.944;9.418;2022-08-21T00:28:08;98780.31;;;17.65;51.11
59154;BME280;44935;48.944;9.418;2022-08-21T00:30:35;98783.21;;;17.03;52.33
59154;BME280;44935;48.944;9.418;2022-08-21T00:33:03;98780.27;;;17.01;51.99
59154;BME280;44935;48.944;9.418;2022-08-21T00:35:33;98776.53;;;17.69;51.25
59154;BME280;44935;48.944;9.418;2022-08-21T00:38:03;98779.92;;;17.45;51.47
59154;BME280;44935;48.944;9.418;2022-08-21T00:40:34;98778.56;;;17.78;50.57
59154;BME280;44935;48.944;9.418;2022-08-21T00:43:02;98779.16;;;17.75;50.36
59154;BME280;44935;48.944;9.418;2022-08-21T00:45:29;98774.96;;;17.75;50.51
59154;BME280;44935;48.944;9.418;2022-08-21T00:47:57;98773.05;;;17.14;50.83
59154;BME280;44935;48.944;9.418;2022-08-21T00:50:26;98768.35;;;17.47;50.52
59154;BME280;44935;48.944;9.418;2022-08-21T00:52:55;98770.16;;;16.94;51.17
59154;BME280;44935;48.944;9.418;2022-08-21T00:55:24;98774.29;;;16.61;52.50
59154;BME280;44935;48.944;9.418;2022-08-21T00:57:55;98773.90;;;16.19;53.47
59154;BME280;44935;48.944;9.418;2022-08-21T01:00:26;98773.48;;;16.05;54.23
59154;BME280;44935;48.944;9.418;2022-08-21T01:02:54;98777.32;;;16.47;53.06
59154;BME280;44935;48.944;9.418;2022-08-21T01:05:21;98775.68;;;16.19;53.62
59154;BME280;44935;48.944;9.418;2022-08-21T01:07:48;98773.23;;;15.64;54.40
59154;BME280;44935;48.944;9.418;2022-08-21T01:10:16;98773.99;;;16.19;53.36
59154;BME280;44935;48.944;9.418;2022-08-21T01:12:44;98776.68;;;16.08;52.71
59154;BME280;44935;48.944;9.418;2022-08-21T01:15:12;98770.93;;;15.89;53.56
59154;BME280;44935;48.944;9.418;2022-08-21T01:17:41;98767.48;;;16.19;52.80
59154;BME280;44935;48.944;9.418;2022-08-21T01:20:11;98769.15;;;16.48;52.16
59154;BME280;44935;48.944;9.418;2022-08-21T01:22:39;98769.87;;;16.64;51.68
59154;BME280;44935;48.944;9.418;2022-08-21T01:25:07;98771.93;;;16.79;51.30
59154;BME280;44935;48.944;9.418;2022-08-21T01:27:34;98771.69;;;16.97;51.39
59154;BME280;44935;48.944;9.418;2022-08-21T01:30:09;98771.79;;;16.60;51.31
59154;BME280;44935;48.944;9.418;2022-08-21T01:32:37;98768.89;;;15.89;52.88
59154;BME280;44935;48.944;9.418;2022-08-21T01:35:05;98768.10;;;15.64;53.77
59154;BME280;44935;48.944;9.418;2022-08-21T01:37:32;98768.76;;;15.33;54.36
59154;BME280;44935;48.944;9.418;2022-08-21T01:39:59;98764.66;;;15.49;53.86
59154;BME280;44935;48.944;9.418;2022-08-21T01:42:26;98762.90;;;15.65;53.69
59154;BME280;44935;48.944;9.418;2022-08-21T01:44:54;98766.22;;;15.33;54.21
59154;BME280;44935;48.944;9.418;2022-08-21T01:47:20;98766.68;;;15.31;54.61
59154;BME280;44935;48.944;9.418;2022-08-21T01:49:47;98766.11;;;15.09;55.21
59154;BME280;44935;48.944;9.418;2022-08-21T01:52:14;98764.92;;;15.32;54.64
59154;BME280;44935;48.944;9.418;2022-08-21T01:54:41;98762.38;;;15.85;53.45
59154;BME280;44935;48.944;9.418;2022-08-21T01:57:09;98762.25;;;15.95;52.70
59154;BME280;44935;48.944;9.418;2022-08-21T01:59:36;98759.45;;;16.27;52.35
59154;BME280;44935;48.944;9.418;2022-08-21T02:02:03;98757.25;;;15.91;52.75
59154;BME280;44935;48.944;9.418;2022-08-21T02:04:31;98757.09;;;15.71;52.76
59154;BME280;44935;48.944;9.418;2022-08-21T02:06:59;98753.22;;;16.16;52.50
59154;BME280;44935;48.944;9.418;2022-08-21T02:09:26;98754.19;;;16.46;51.48
59154;BME280;44935;48.944;9.418;2022-08-21T02:11:53;98754.49;;;16.26;51.38
59154;BME280;44935;48.944;9.418;2022-08-21T02:14:20;98754.76;;;15.92;52.15
59154;BME280;44935;48.944;9.418;2022-08-21T02:16:47;98753.33;;;16.04;52.37
59154;BME280;44935;48.944;9.418;2022-08-21T02:19:15;98752.88;;;16.30;52.21
59154;BME280;44935;48.944;9.418;2022-08-21T02:21:43;98752.01;;;16.95;50.73
59154;BME280;44935;48.944;9.418;2022-08-21T02:24:11;98751.34;;;16.76;50.44
59154;BME280;44935;48.944;9.418;2022-08-21T02:26:39;98750.57;;;16.75;50.38
59154;BME280;44935;48.944;9.418;2022-08-21T02:29:05;98750.64;;;16.62;50.72
59154;BME280;44935;48.944;9.418;2022-08-21T02:31:32;98750.97;;;16.43;51.14
59154;BME280;44935;48.944;9.418;2022-08-21T02:33:59;98751.69;;;16.55;51.10
59154;BME280;44935;48.944;9.418;2022-08-21T02:36:27;98753.57;;;16.30;50.84
59154;BME280;44935;48.944;9.418;2022-08-21T02:38:55;98751.14;;;16.24;51.07
59154;BME280;44935;48.944;9.418;2022-08-21T02:41:22;98751.16;;;16.51;50.79
59154;BME280;44935;48.944;9.418;2022-08-21T02:43:49;98753.25;;;16.46;50.83
59154;BME280;44935;48.944;9.418;2022-08-21T02:46:18;98752.97;;;16.50;50.55
59154;BME280;44935;48.944;9.418;2022-08-21T02:48:46;98749.38;;;17.29;48.87
59154;BME280;44935;48.944;9.418;2022-08-21T02:51:15;98749.11;;;17.02;48.40
59154;BME280;44935;48.944;9.418;2022-08-21T02:53:43;98750.53;;;16.75;49.36
59154;BME280;44935;48.944;9.418;2022-08-21T02:56:13;98746.81;;;16.13;50.39
59154;BME280;44935;48.944;9.418;2022-08-21T02:58:43;98742.55;;;16.04;51.48
59154;BME280;44935;48.944;9.418;2022-08-21T03:01:11;98743.29;;;15.75;51.15
59154;BME280;44935;48.944;9.418;2022-08-21T03:03:40;98743.41;;;16.43;50.57
59154;BME280;44935;48.944;9.418;2022-08-21T03:06:09;98744.28;;;16.64;49.74
59154;BME280;44935;48.944;9.418;2022-08-21T03:08:37;98742.33;;;16.30;49.93
59154;BME280;44935;48.944;9.418;2022-08-21T03:11:07;98740.73;;;16.12;50.96
59154;BME280;44935;48.944;9.418;2022-08-21T03:13:34;98740.28;;;15.76;51.23
59154;BME280;44935;48.944;9.418;2022-08-21T03:16:01;98739.98;;;15.16;52.53
59154;BME280;44935;48.944;9.418;2022-08-21T03:18:28;98740.25;;;14.99;52.67
59154;BME280;44935;48.944;9.418;2022-08-21T03:20:55;98738.77;;;14.94;53.09
59154;BME280;44935;48.944;9.418;2022-08-21T03:23:22;98738.62;;;14.69;53.41
59154;BME280;44935;48.944;9.418;2022-08-21T03:25:49;98741.89;;;14.76;53.69
59154;BME280;44935;48.944;9.418;2022-08-21T03:28:18;98742.83;;;14.10;53.94
59154;BME280;44935;48.944;9.418;2022-08-21T03:30:47;98744.82;;;13.89;54.27
59154;BME280;44935;48.944;9.418;2022-08-21T03:33:15;98746.97;;;14.18;54.17
59154;BME280;44935;48.944;9.418;2022-08-21T03:35:45;98746.90;;;14.51;53.95
59154;BME280;44935;48.944;9.418;2022-08-21T03:38:14;98746.58;;;14.59;54.22
59154;BME280;44935;48.944;9.418;2022-08-21T03:40:42;98743.95;;;14.31;54.46
59154;BME280;44935;48.944;9.418;2022-08-21T03:43:10;98746.30;;;14.28;54.27
59154;BME280;44935;48.944;9.418;2022-08-21T03:45:38;98746.85;;;14.40;53.86
59154;BME280;44935;48.944;9.418;2022-08-21T03:48:07;98746.33;;;14.74;53.08
59154;BME280;44935;48.944;9.418;2022-08-21T03:50:37;98752.53;;;14.87;52.95
59154;BME280;44935;48.944;9.418;2022-08-21T03:53:05;98760.26;;;14.95;52.52
59154;BME280;44935;48.944;9.418;2022-08-21T03:55:32;98757.47;;;15.61;51.62
59154;BME280;44935;48.944;9.418;2022-08-21T03:57:59;98757.62;;;16.12;50.52
59154;BME280;44935;48.944;9.418;2022-08-21T04:00:26;98763.58;;;16.22;49.49
59154;BME280;44935;48.944;9.418;2022-08-21T04:02:53;98760.33;;;15.88;50.01
59154;BME280;44935;48.944;9.418;2022-08-21T04:05:20;98757.89;;;15.72;50.74
59154;BME280;44935;48.944;9.418;2022-08-21T04:07:47;98758.82;;;15.62;50.73
59154;BME280;44935;48.944;9.418;2022-08-21T04:10:14;98762.38;;;15.84;50.18
59154;BME280;44935;48.944;9.418;2022-08-21T04:12:40;98766.51;;;15.16;51.24
59154;BME280;44935;48.944;9.418;2022-08-21T04:15:08;98768.41;;;14.73;52.58
59154;BME280;44935;48.944;9.418;2022-08-21T04:17:35;98767.60;;;14.66;52.76
59154;BME280;44935;48.944;9.418;2022-08-21T04:20:03;98768.91;;;14.83;52.52
59154;BME280;44935;48.944;9.418;2022-08-21T04:22:30;98767.82;;;14.82;52.14
59154;BME280;44935;48.944;9.418;2022-08-21T04:24:57;98772.37;;;14.91;51.94
59154;BME280;44935;48.944;9.418;2022-08-21T04:27:23;98774.84;;;15.14;51.51
59154;BME280;44935;48.944;9.418;2022-08-21T04:29:50;98780.37;;;15.08;51.65
59154;BME280;44935;48.944;9.418;2022-08-21T04:32:22;98782.88;;;14.76;51.45
59154;BME280;44935;48.944;9.418;2022-08-21T04:34:48;98786.91;;;14.34;52.78
59154;BME280;44935;48.944;9.418;2022-08-21T04:37:16;98788.15;;;14.44;52.75
59154;BME280;44935;48.944;9.418;2022-08-21T04:39:43;98791.37;;;14.78;51.89
59154;BME280;44935;48.944;9.418;2022-08-21T04:42:10;98797.28;;;15.13;51.53
59154;BME280;44935;48.944;9.418;2022-08-21T04:44:36;98802.06;;;15.07;51.18
59154;BME280;44935;48.944;9.418;2022-08-21T04:47:04;98799.81;;;15.35;50.80
59154;BME280;44935;48.944;9.418;2022-08-21T04:49:30;98802.27;;;14.96;50.93
59154;BME280;44935;48.944;9.418;2022-08-21T04:51:57;98805.00;;;14.78;51.68
59154;BME280;44935;48.944;9.418;2022-08-21T04:54:24;98807.07;;;14.53;51.99
59154;BME280;44935;48.944;9.418;2022-08-21T04:56:55;98807.65;;;14.19;52.40
59154;BME280;44935;48.944;9.418;2022-08-21T04:59:26;98809.70;;;14.10;52.81
59154;BME280;44935;48.944;9.418;2022-08-21T05:01:54;98809.51;;;14.62;51.79
59154;BME280;44935;48.944;9.418;2022-08-21T05:04:25;98810.43;;;14.66;52.44
59154;BME280;44935;48.944;9.418;2022-08-21T05:06:55;98809.83;;;14.29;52.27
59154;BME280;44935;48.944;9.418;2022-08-21T05:09:24;98811.70;;;14.50;52.39
59154;BME280;44935;48.944;9.418;2022-08-21T05:11:51;98816.10;;;14.19;53.14
59154;BME280;44935;48.944;9.418;2022-08-21T05:14:19;98817.81;;;14.23;54.17
59154;BME280;44935;48.944;9.418;2022-08-21T05:16:46;98817.00;;;14.53;53.36
59154;BME280;44935;48.944;9.418;2022-08-21T05:19:14;98813.48;;;14.94;52.60
59154;BME280;44935;48.944;9.418;2022-08-21T05:21:44;98815.75;;;14.82;52.84
59154;BME280;44935;48.944;9.418;2022-08-21T05:24:12;98816.04;;;14.80;52.57
59154;BME280;44935;48.944;9.418;2022-08-21T05:26:40;98816.13;;;14.42;52.73
59154;BME280;44935;48.944;9.418;2022-08-21T05:29:06;98822.31;;;14.56;53.35
59154;BME280;44935;48.944;9.418;2022-08-21T05:31:33;98821.96;;;14.39;54.10
59154;BME280;44935;48.944;9.418;2022-08-21T05:34:00;98823.17;;;14.10;55.25
59154;BME280;44935;48.944;9.418;2022-08-21T05:36:27;98821.69;;;14.52;54.80
59154;BME280;44935;48.944;9.418;2022-08-21T05:38:54;98821.00;;;14.25;55.39
59154;BME280;44935;48.944;9.418;2022-08-21T05:41:21;98824.47;;;14.38;55.90
59154;BME280;44935;48.944;9.418;2022-08-21T05:43:49;98824.25;;;14.71;55.05
59154;BME280;44935;48.944;9.418;2022-08-21T05:46:16;98826.22;;;15.39;53.88
59154;BME280;44935;48.944;9.418;2022-08-21T05:48:43;98823.11;;;15.07;53.61
59154;BME280;44935;48.944;9.418;2022-08-21T05:51:16;98822.69;;;15.13;54.72
59154;BME280;44935;48.944;9.418;2022-08-21T05:53:44;98824.11;;;15.56;53.99
59154;BME280;44935;48.944;9.418;2022-08-21T05:56:12;98823.17;;;15.44;53.46
59154;BME280;44935;48.944;9.418;2022-08-21T05:58:40;98824.58;;;15.59;53.15
59154;BME280;44935;48.944;9.418;2022-08-21T06:01:08;98824.97;;;15.64;53.40
59154;BME280;44935;48.944;9.418;2022-08-21T06:03:37;98823.90;;;15.76;53.08
59154;BME280;44935;48.944;9.418;2022-08-21T06:06:05;98826.52;;;15.72;53.32
59154;BME280;44935;48.944;9.418;2022-08-21T06:08:33;98826.40;;;15.85;53.34
59154;BME280;44935;48.944;9.418;2022-08-21T06:11:01;98825.63;;;15.88;53.74
59154;BME280;44935;48.944;9.418;2022-08-21T06:13:29;98823.33;;;16.17;53.15
59154;BME280;44935;48.944;9.418;2022-08-21T06:16:07;98823.65;;;16.02;53.06
59154;BME280;44935;48.944;9.418;2022-08-21T06:18:34;98823.56;;;15.87;52.96
59154;BME280;44935;48.944;9.418;2022-08-21T06:21:01;98826.13;;;16.06;53.64
59154;BME280;44935;48.944;9.418;2022-08-21T06:23:29;98828.02;;;16.00;53.77
59154;BME280;44935;48.944;9.418;2022-08-21T06:25:57;98828.15;;;16.10;53.12
59154;BME280;44935;48.944;9.418;2022-08-21T06:28:25;98829.51;;;16.45;53.83
59154;BME280;44935;48.944;9.418;2022-08-21T06:30:52;98829.93;;;16.70;52.87
59154;BME280;44935;48.944;9.418;2022-08-21T06:33:19;98829.77;;;16.92;51.78
59154;BME280;44935;48.944;9.418;2022-08-21T06:35:46;98829.02;;;17.41;51.34
59154;BME280;44935;48.944;9.418;2022-08-21T06:38:13;98826.92;;;17.10;51.29
59154;BME280;44935;48.944;9.418;2022-08-21T06:40:41;98827.56;;;17.77;50.05
59154;BME280;44935;48.944;9.418;2022-08-21T06:43:12;98825.44;;;17.83;50.30
59154;BME280;44935;48.944;9.418;2022-08-21T06:45:39;98820.77;;;18.22;49.13
59154;BME280;44935;48.944;9.418;2022-08-21T06:48:06;98818.93;;;18.51;48.19
59154;BME280;44935;48.944;9.418;2022-08-21T06:50:33;98818.35;;;18.23;48.36
59154;BME280;44935;48.944;9.418;2022-08-21T06:53:03;98816.95;;;18.70;47.93
59154;BME280;44935;48.944;9.418;2022-08-21T06:55:32;98815.65;;;18.54;47.92
59154;BME280;44935;48.944;9.418;2022-08-21T06:58:00;98815.58;;;18.99;48.00
59154;BME280;44935;48.944;9.418;2022-08-21T07:00:27;98815.10;;;19.11;47.02
59154;BME280;44935;48.944;9.418;2022-08-21T07:02:55;98817.00;;;19.42;46.55
59154;BME280;44935;48.944;9.418;2022-08-21T07:05:22;98815.45;;;18.89;47.66
59154;BME280;44935;48.944;9.418;2022-08-21T07:07:48;98821.49;;;17.76;49.53
59154;BME280;44935;48.944;9.418;2022-08-21T07:10:16;98813.05;;;19.47;46.03
59154;BME280;44935;48.944;9.418;2022-08-21T07:12:43;98815.82;;;19.63;45.32
59154;BME280;44935;48.944;9.418;2022-08-21T07:15:11;98815.14;;;18.69;46.86
59154;BME280;44935;48.944;9.418;2022-08-21T07:17:38;98813.44;;;19.29;46.18
59154;BME280;44935;48.944;9.418;2022-08-21T07:20:06;98814.00;;;19.77;45.76
59154;BME280;44935;48.944;9.418;2022-08-21T07:22:36;98808.59;;;20.03;44.18
59154;BME280;44935;48.944;9.418;2022-08-21T07:25:04;98811.07;;;20.09;44.55
59154;BME280;44935;48.944;9.418;2022-08-21T07:27:31;98811.18;;;19.48;45.88
59154;BME280;44935;48.944;9.418;2022-08-21T07:29:58;98804.69;;;20.04;44.96
59154;BME280;44935;48.944;9.418;2022-08-21T07:32:26;98808.19;;;19.38;45.62
59154;BME280;44935;48.944;9.418;2022-08-21T07:34:53;98807.29;;;19.76;45.00
59154;BME280;44935;48.944;9.418;2022-08-21T07:37:20;98805.41;;;19.80;43.85
59154;BME280;44935;48.944;9.418;2022-08-21T07:39:46;98803.61;;;20.04;43.03
59154;BME280;44935;48.944;9.418;2022-08-21T07:42:13;98798.31;;;20.29;42.83
59154;BME280;44935;48.944;9.418;2022-08-21T07:44:40;98799.16;;;20.61;42.76
59154;BME280;44935;48.944;9.418;2022-08-21T07:47:07;98797.77;;;20.61;42.95
59154;BME280;44935;48.944;9.418;2022-08-21T07:49:34;98796.66;;;20.48;43.11
59154;BME280;44935;48.944;9.418;2022-08-21T07:52:02;98798.11;;;20.84;43.06
59154;BME280;44935;48.944;9.418;2022-08-21T07:54:29;98798.83;;;20.80;42.99
59154;BME280;44935;48.944;9.418;2022-08-21T07:56:55;98797.82;;;21.18;41.86
59154;BME280;44935;48.944;9.418;2022-08-21T07:59:22;98800.28;;;21.04;42.13
59154;BME280;44935;48.944;9.418;2022-08-21T08:01:49;98796.82;;;20.31;42.18
59154;BME280;44935;48.944;9.418;2022-08-21T08:04:16;98798.45;;;21.08;41.47
59154;BME280;44935;48.944;9.418;2022-08-21T08:06:43;98790.93;;;20.85;41.44
59154;BME280;44935;48.944;9.418;2022-08-21T08:09:10;98784.59;;;20.37;42.22
59154;BME280;44935;48.944;9.418;2022-08-21T08:11:40;98784.63;;;19.85;43.30
59154;BME280;44935;48.944;9.418;2022-08-21T08:14:07;98781.71;;;19.53;44.36
59154;BME280;44935;48.944;9.418;2022-08-21T08:16:34;98781.23;;;20.79;43.16
59154;BME280;44935;48.944;9.418;2022-08-21T08:19:01;98781.33;;;20.97;42.10
59154;BME280;44935;48.944;9.418;2022-08-21T08:21:28;98778.40;;;21.31;41.50
59154;BME280;44935;48.944;9.418;2022-08-21T08:23:55;98775.02;;;21.82;40.73
59154;BME280;44935;48.944;9.418;2022-08-21T08:26:22;98770.96;;;22.54;39.28
59154;BME280;44935;48.944;9.418;2022-08-21T08:28:48;98767.08;;;22.69;39.36
59154;BME280;44935;48.944;9.418;2022-08-21T08:31:16;98767.92;;;22.16;39.67
59154;BME280;44935;48.944;9.418;2022-08-21T08:33:42;98768.47;;;21.32;40.36
59154;BME280;44935;48.944;9.418;2022-08-21T08:36:13;98765.31;;;22.32;39.80
59154;BME280;44935;48.944;9.418;2022-08-21T08:38:41;98758.45;;;22.15;40.20
59154;BME280;44935;48.944;9.418;2022-08-21T08:41:11;98758.88;;;22.10;39.88
59154;BME280;44935;48.944;9.418;2022-08-21T08:43:40;98757.84;;;20.92;42.95
59154;BME280;44935;48.944;9.418;2022-08-21T08:46:13;98756.71;;;21.53;40.86
59154;BME280;44935;48.944;9.418;2022-08-21T08:48:50;98758.16;;;21.37;41.50
59154;BME280;44935;48.944;9.418;2022-08-21T08:51:21;98753.34;;;22.20;40.52
59154;BME280;44935;48.944;9.418;2022-08-21T08:53:54;98751.85;;;21.34;41.52
59154;BME280;44935;48.944;9.418;2022-08-21T08:56:28;98748.42;;;22.35;40.60
59154;BME280;44935;48.944;9.418;2022-08-21T08:59:00;98745.68;;;21.87;40.01
59154;BME280;44935;48.944;9.418;2022-08-21T09:01:28;98748.76;;;22.84;38.99
59154;BME280;44935;48.944;9.418;2022-08-21T09:03:56;98746.10;;;22.70;38.72
59154;BME280;44935;48.944;9.418;2022-08-21T09:06:36;98748.02;;;22.86;39.03
59154;BME280;44935;48.944;9.418;2022-08-21T09:09:14;98740.93;;;22.91;38.47
59154;BME280;44935;48.944;9.418;2022-08-21T09:11:51;98742.19;;;23.15;38.49
59154;BME280;44935;48.944;9.418;2022-08-21T09:14:26;98739.37;;;23.33;37.25
59154;BME280;44935;48.944;9.418;2022-08-21T09:17:04;98734.62;;;23.39;37.03
59154;BME280;44935;48.944;9.418;2022-08-21T09:19:46;98731.65;;;22.93;37.99
59154;BME280;44935;48.944;9.418;2022-08-21T09:22:26;98730.92;;;23.08;37.92
59154;BME280;44935;48.944;9.418;2022-08-21T09:25:02;98727.64;;;23.48;36.93
59154;BME280;44935;48.944;9.418;2022-08-21T09:27:31;98727.18;;;23.54;36.44
59154;BME280;44935;48.944;9.418;2022-08-21T09:29:58;98724.54;;;23.17;37.43
59154;BME280;44935;48.944;9.418;2022-08-21T09:32:27;98722.38;;;22.25;38.42
59154;BME280;44935;48.944;9.418;2022-08-21T09:34:57;98723.45;;;23.25;35.58
59154;BME280;44935;48.944;9.418;2022-08-21T09:37:26;98724.14;;;23.25;36.21
59154;BME280;44935;48.944;9.418;2022-08-21T09:39:52;98724.12;;;23.13;36.15
59154;BME280;44935;48.944;9.418;2022-08-21T09:42:26;98723.26;;;22.73;37.79
59154;BME280;44935;48.944;9.418;2022-08-21T09:45:13;98723.69;;;20.53;40.83
59154;BME280;44935;48.944;9.418;2022-08-21T09:47:41;98717.58;;;22.19;38.92
59154;BME280;44935;48.944;9.418;2022-08-21T09:50:11;98711.70;;;23.19;36.73
59154;BME280;44935;48.944;9.418;2022-08-21T09:52:45;98712.35;;;23.37;36.18
59154;BME280;44935;48.944;9.418;2022-08-21T09:55:18;98714.54;;;21.60;38.83
59154;BME280;44935;48.944;9.418;2022-08-21T09:57:47;98710.37;;;22.58;38.07
59154;BME280;44935;48.944;9.418;2022-08-21T10:00:19;98709.06;;;23.82;35.45
59154;BME280;44935;48.944;9.418;2022-08-21T10:02:46;98707.17;;;23.63;35.04
59154;BME280;44935;48.944;9.418;2022-08-21T10:05:19;98703.26;;;24.03;34.25
59154;BME280;44935;48.944;9.418;2022-08-21T10:07:46;98698.53;;;22.28;36.89
59154;BME280;44935;48.944;9.418;2022-08-21T10:10:18;98696.90;;;23.75;34.24
59154;BME280;44935;48.944;9.418;2022-08-21T10:12:51;98694.09;;;24.44;34.06
59154;BME280;44935;48.944;9.418;2022-08-21T10:15:24;98693.50;;;24.63;33.30
59154;BME280;44935;48.944;9.418;2022-08-21T10:18:00;98693.96;;;24.65;32.19
59154;BME280;44935;48.944;9.418;2022-08-21T10:20:37;98691.00;;;23.52;33.87
59154;BME280;44935;48.944;9.418;2022-08-21T10:23:20;98685.89;;;24.24;32.01
59154;BME280;44935;48.944;9.418;2022-08-21T10:25:58;98683.30;;;24.30;30.65
59154;BME280;44935;48.944;9.418;2022-08-21T10:28:32;98681.98;;;24.05;31.31
59154;BME280;44935;48.944;9.418;2022-08-21T10:31:11;98679.87;;;23.77;32.79
59154;BME280;44935;48.944;9.418;2022-08-21T10:33:46;98680.92;;;24.67;31.25
59154;BME280;44935;48.944;9.418;2022-08-21T10:36:21;98680.04;;;25.11;31.26
59154;BME280;44935;48.944;9.418;2022-08-21T10:38:58;98680.24;;;25.35;30.55
59154;BME280;44935;48.944;9.418;2022-08-21T10:41:37;98679.28;;;25.03;30.55
59154;BME280;44935;48.944;9.418;2022-08-21T10:44:17;98675.57;;;24.99;30.49
59154;BME280;44935;48.944;9.418;2022-08-21T10:46:54;98671.12;;;24.64;30.10
59154;BME280;44935;48.944;9.418;2022-08-21T10:49:31;98673.44;;;24.95;31.03
59154;BME280;44935;48.944;9.418;2022-08-21T10:52:17;98667.22;;;21.94;33.78
59154;BME280;44935;48.944;9.418;2022-08-21T10:54:52;98662.59;;;22.52;33.62
59154;BME280;44935;48.944;9.418;2022-08-21T10:57:29;98661.19;;;24.28;31.52
59154;BME280;44935;48.944;9.418;2022-08-21T11:00:04;98664.05;;;25.13;31.26
59154;BME280;44935;48.944;9.418;2022-08-21T11:02:35;98662.73;;;25.43;30.53
59154;BME280;44935;48.944;9.418;2022-08-21T11:05:10;98665.91;;;25.60;29.80
59154;BME280;44935;48.944;9.418;2022-08-21T11:07:45;98667.36;;;25.59;29.47
59154;BME280;44935;48.944;9.418;2022-08-21T11:10:18;98659.24;;;25.66;29.99
59154;BME280;44935;48.944;9.418;2022-08-21T11:12:50;98656.71;;;24.81;29.59
59154;BME280;44935;48.944;9.418;2022-08-21T11:15:28;98647.94;;;23.81;31.06
59154;BME280;44935;48.944;9.418;2022-08-21T11:18:04;98648.12;;;24.57;31.72
59154;BME280;44935;48.944;9.418;2022-08-21T11:20:42;98645.72;;;25.41;29.71
59154;BME280;44935;48.944;9.418;2022-08-21T11:23:15;98643.42;;;24.33;30.71
59154;BME280;44935;48.944;9.418;2022-08-21T11:25:49;98640.54;;;23.30;31.44
59154;BME280;44935;48.944;9.418;2022-08-21T11:28:24;98644.63;;;25.15;29.72
59154;BME280;44935;48.944;9.418;2022-08-21T11:31:02;98644.61;;;24.50;30.92
59154;BME280;44935;48.944;9.418;2022-08-21T11:33:48;98641.96;;;23.62;31.72
59154;BME280;44935;48.944;9.418;2022-08-21T11:36:34;98639.32;;;23.78;31.29
59154;BME280;44935;48.944;9.418;2022-08-21T11:39:12;98643.84;;;23.72;30.71
59154;BME280;44935;48.944;9.418;2022-08-21T11:41:47;98634.18;;;22.39;32.73
59154;BME280;44935;48.944;9.418;2022-08-21T11:44:29;98626.31;;;24.41;29.77
59154;BME280;44935;48.944;9.418;2022-08-21T11:47:06;98626.82;;;25.51;28.39
59154;BME280;44935;48.944;9.418;2022-08-21T11:49:46;98626.72;;;24.87;29.55
59154;BME280;44935;48.944;9.418;2022-08-21T11:52:20;98615.63;;;23.51;29.97
59154;BME280;44935;48.944;9.418;2022-08-21T11:54:55;98623.79;;;23.43;30.45
59154;BME280;44935;48.944;9.418;2022-08-21T11:57:30;98621.93;;;24.15;31.02
59154;BME280;44935;48.944;9.418;2022-08-21T12:00:04;98619.94;;;25.11;28.43
59154;BME280;44935;48.944;9.418;2022-08-21T12:02:36;98612.82;;;25.88;26.72
59154;BME280;44935;48.944;9.418;2022-08-21T12:05:09;98615.76;;;24.13;28.31
59154;BME280;44935;48.944;9.418;2022-08-21T12:07:42;98611.56;;;25.19;27.72
59154;BME280;44935;48.944;9.418;2022-08-21T12:10:12;98613.24;;;24.12;29.56
59154;BME280;44935;48.944;9.418;2022-08-21T12:12:42;98613.57;;;24.19;29.06
59154;BME280;44935;48.944;9.418;2022-08-21T12:15:28;98616.30;;;25.54;28.64
59154;BME280;44935;48.944;9.418;2022-08-21T12:17:58;98619.31;;;25.10;27.97
59154;BME280;44935;48.944;9.418;2022-08-21T12:20:36;98617.15;;;24.24;28.58
59154;BME280;44935;48.944;9.418;2022-08-21T12:23:15;98618.21;;;24.48;29.52
59154;BME280;44935;48.944;9.418;2022-08-21T12:25:45;98614.67;;;25.47;28.56
59154;BME280;44935;48.944;9.418;2022-08-21T12:28:16;98611.28;;;26.00;27.65
59154;BME280;44935;48.944;9.418;2022-08-21T12:30:52;98609.21;;;25.39;28.73
59154;BME280;44935;48.944;9.418;2022-08-21T12:33:23;98605.39;;;26.00;28.01
59154;BME280;44935;48.944;9.418;2022-08-21T12:35:52;98599.28;;;26.16;27.24
59154;BME280;44935;48.944;9.418;2022-08-21T12:38:22;98597.70;;;25.37;28.92
59154;BME280;44935;48.944;9.418;2022-08-21T12:40:53;98591.39;;;25.47;27.80
59154;BME280;44935;48.944;9.418;2022-08-21T12:43:27;98586.42;;;25.60;27.14
59154;BME280;44935;48.944;9.418;2022-08-21T12:45:56;98585.00;;;26.60;25.52
59154;BME280;44935;48.944;9.418;2022-08-21T12:48:29;98582.69;;;25.87;27.36
59154;BME280;44935;48.944;9.418;2022-08-21T12:51:08;98579.96;;;24.82;27.51
59154;BME280;44935;48.944;9.418;2022-08-21T12:53:40;98577.53;;;23.85;28.37
59154;BME280;44935;48.944;9.418;2022-08-21T12:56:13;98572.73;;;25.98;26.24
59154;BME280;44935;48.944;9.418;2022-08-21T12:58:44;98575.31;;;26.93;25.21
59154;BME280;44935;48.944;9.418;2022-08-21T13:01:17;98573.12;;;26.48;24.33
59154;BME280;44935;48.944;9.418;2022-08-21T13:03:46;98569.42;;;26.50;24.50
59154;BME280;44935;48.944;9.418;2022-08-21T13:06:15;98568.74;;;26.84;24.38
59154;BME280;44935;48.944;9.418;2022-08-21T13:08:44;98567.13;;;26.88;24.80
59154;BME280;44935;48.944;9.418;2022-08-21T13:11:16;98567.74;;;27.06;24.12
59154;BME280;44935;48.944;9.418;2022-08-21T13:13:48;98566.94;;;26.56;24.68